Time;durP1;ratioP1;P1;durP2;ratioP2;P2;SDS_P1;SDS_P2;PMS_P1;PMS_P2;Temp;Humidity;BMP_temperature;BMP_pressure;BME280_temperature;BME280_humidity;BME280_pressure;Samples;Min_cycle;Max_cycle;Signal;HPM_P1;HPM_P2
2022/10/11 00:00:32;;;;;;;14.75;3.05;;;8.70;99.90;;;;;;6067498;23;20040;-87
2022/10/11 00:02:58;;;;;;;18.20;3.55;;;9.10;99.90;;;;;;6043523;23;20022;-87
2022/10/11 00:05:24;;;;;;;12.10;2.45;;;10.10;99.90;;;;;;6067990;23;20025;-87
2022/10/11 00:07:51;;;;;;;13.57;2.75;;;8.70;99.90;;;;;;6068481;23;20456;-87
2022/10/11 00:10:17;;;;;;;14.60;2.60;;;8.70;99.90;;;;;;6043983;23;20021;-87
2022/10/11 00:12:43;;;;;;;19.75;3.03;;;8.70;99.90;;;;;;6044078;23;20085;-87
2022/10/11 00:15:17;;;;;;;13.80;2.90;;;8.80;99.90;;;;;;6043878;23;20409;-87
2022/10/11 00:17:43;;;;;;;12.20;2.90;;;8.70;99.90;;;;;;6043293;23;20093;-87
2022/10/11 00:20:09;;;;;;;16.52;3.15;;;8.80;99.90;;;;;;6044336;23;20014;-87
2022/10/11 00:22:36;;;;;;;14.13;3.30;;;8.60;99.90;;;;;;6044063;23;20019;-87
2022/10/11 00:25:04;;;;;;;15.05;2.92;;;8.60;99.90;;;;;;6044438;23;20018;-87
2022/10/11 00:27:29;;;;;;;20.50;3.60;;;8.60;99.90;;;;;;6067748;23;20022;-87
2022/10/11 00:29:55;;;;;;;13.65;3.20;;;8.60;99.90;;;;;;6041692;23;20019;-87
2022/10/11 00:32:21;;;;;;;13.07;3.22;;;8.60;99.90;;;;;;6019047;23;20043;-87
2022/10/11 00:34:47;;;;;;;14.93;3.20;;;8.60;99.90;;;;;;6044032;23;20056;-87
2022/10/11 00:37:12;;;;;;;17.70;3.10;;;8.50;99.90;;;;;;6043381;23;20460;-87
2022/10/11 00:39:38;;;;;;;20.35;3.10;;;8.50;99.90;;;;;;6020057;23;20081;-87
2022/10/11 00:42:04;;;;;;;13.23;2.75;;;8.50;99.90;;;;;;6020434;23;20014;-87
2022/10/11 00:44:32;;;;;;;13.43;3.22;;;8.50;99.90;;;;;;6043065;23;20018;-87
2022/10/11 00:47:07;;;;;;;20.00;3.15;;;9.80;99.90;;;;;;6043462;23;20436;-87
2022/10/11 00:49:41;;;;;;;15.13;3.55;;;8.50;99.90;;;;;;6044051;23;20034;-88
2022/10/11 00:52:35;;;;;;;12.68;2.97;;;8.50;99.90;;;;;;6067869;23;20011;-87
2022/10/11 00:55:07;;;;;;;13.77;2.70;;;8.50;99.90;;;;;;6043436;23;20026;-87
2022/10/11 00:57:37;;;;;;;14.60;2.78;;;8.50;99.90;;;;;;6043542;23;20062;-87
2022/10/11 01:00:08;;;;;;;11.77;2.67;;;8.50;99.90;;;;;;6042579;23;20089;-88
2022/10/11 01:02:33;;;;;;;12.63;2.90;;;8.40;99.90;;;;;;6043632;23;20048;-87
2022/10/11 01:05:00;;;;;;;12.55;2.40;;;8.40;99.90;;;;;;6067818;23;20085;-88
2022/10/11 01:07:30;;;;;;;14.90;2.72;;;8.50;99.90;;;;;;6042954;23;20018;-87
2022/10/11 01:09:56;;;;;;;13.43;2.90;;;8.50;99.90;;;;;;6045194;23;20046;-87
2022/10/11 01:12:25;;;;;;;13.70;2.55;;;8.40;99.90;;;;;;6043470;23;20058;-86
2022/10/11 01:15:06;;;;;;;15.35;2.97;;;9.80;99.90;;;;;;6067041;23;20448;-86
2022/10/11 01:17:59;;;;;;;15.75;3.15;;;8.10;99.90;;;;;;6043109;23;20014;-87
2022/10/11 01:20:34;;;;;;;15.00;2.67;;;8.40;99.90;;;;;;6043402;23;20025;-86
2022/10/11 01:23:31;;;;;;;13.10;2.45;;;8.40;99.90;;;;;;6043934;23;20436;-87
2022/10/11 01:26:18;;;;;;;13.88;2.70;;;8.40;99.90;;;;;;6042178;23;20105;-86
2022/10/11 01:29:03;;;;;;;13.85;2.70;;;8.30;99.90;;;;;;6067115;23;20025;-87
2022/10/11 01:31:39;;;;;;;17.05;3.20;;;8.30;99.90;;;;;;6074525;23;20021;-86
2022/10/11 01:34:13;;;;;;;11.35;2.45;;;8.70;99.90;;;;;;6072578;23;20022;-87
2022/10/11 01:37:07;;;;;;;20.85;4.00;;;8.30;99.90;;;;;;6046255;23;20018;-87
2022/10/11 01:39:42;;;;;;;12.25;2.80;;;8.20;99.90;;;;;;5999334;23;20555;-87
2022/10/11 01:42:11;;;;;;;14.75;2.55;;;8.20;99.90;;;;;;6042419;23;20022;-86
2022/10/11 01:44:40;;;;;;;17.27;3.20;;;9.20;99.90;;;;;;6067344;23;20421;-86
2022/10/11 01:47:06;;;;;;;10.98;2.53;;;8.70;99.90;;;;;;6042996;23;20047;-87
2022/10/11 01:49:32;;;;;;;12.27;3.05;;;8.70;99.90;;;;;;6042904;23;20018;-87
2022/10/11 01:52:02;;;;;;;17.20;3.00;;;8.20;99.90;;;;;;6019383;23;20022;-86
2022/10/11 01:54:40;;;;;;;14.82;2.75;;;8.20;99.90;;;;;;6093713;23;20018;-86
2022/10/11 01:57:24;;;;;;;16.98;3.35;;;8.20;99.90;;;;;;6042074;23;20029;-86
2022/10/11 02:00:20;;;;;;;10.35;2.50;;;8.20;99.90;;;;;;6067587;23;20163;-86
2022/10/11 02:03:10;;;;;;;13.18;3.15;;;8.20;99.90;;;;;;6067019;23;20082;-87
2022/10/11 02:05:48;;;;;;;15.63;3.13;;;8.10;99.90;;;;;;6043161;23;20022;-86
2022/10/11 02:08:18;;;;;;;14.82;2.83;;;8.20;99.90;;;;;;6066423;23;20010;-86
2022/10/11 02:11:14;;;;;;;14.20;3.30;;;8.10;99.90;;;;;;6043001;23;20014;-86
2022/10/11 02:13:58;;;;;;;14.15;2.70;;;8.10;99.90;;;;;;6043301;23;20014;-87
2022/10/11 02:16:46;;;;;;;13.55;2.78;;;8.20;99.90;;;;;;6043212;23;20014;-87
2022/10/11 02:19:17;;;;;;;12.43;2.95;;;8.10;99.90;;;;;;6042984;23;20026;-87
2022/10/11 02:21:46;;;;;;;14.30;2.47;;;8.10;99.90;;;;;;6066506;23;20105;-86
2022/10/11 02:24:22;;;;;;;15.63;2.58;;;9.10;99.90;;;;;;6043355;23;20398;-87
2022/10/11 02:26:53;;;;;;;13.32;2.33;;;8.10;99.90;;;;;;6042547;23;20050;-86
2022/10/11 02:29:19;;;;;;;14.82;2.75;;;9.00;99.90;;;;;;6042125;23;20018;-86
2022/10/11 02:31:46;;;;;;;15.00;3.13;;;8.20;99.90;;;;;;6042770;23;20014;-87
2022/10/11 02:34:19;;;;;;;10.98;2.60;;;8.10;99.90;;;;;;6043776;23;20389;-86
2022/10/11 02:36:53;;;;;;;16.20;3.13;;;8.10;99.90;;;;;;6065914;23;20022;-86
2022/10/11 02:39:38;;;;;;;11.07;2.38;;;8.00;99.90;;;;;;6066918;23;20092;-87
2022/10/11 02:42:08;;;;;;;15.65;3.17;;;8.00;99.90;;;;;;6066030;23;20017;-87
2022/10/11 02:44:39;;;;;;;17.55;2.53;;;8.30;99.90;;;;;;6043343;23;20155;-86
2022/10/11 02:47:05;;;;;;;15.40;2.78;;;8.00;99.90;;;;;;6066306;23;20015;-86
2022/10/11 02:49:31;;;;;;;12.85;2.40;;;7.90;99.90;;;;;;6042914;23;20093;-87
2022/10/11 02:51:58;;;;;;;12.88;2.70;;;8.00;99.90;;;;;;6065302;23;20407;-86
2022/10/11 02:54:25;;;;;;;12.27;3.15;;;9.00;99.90;;;;;;6066910;23;20018;-86
2022/10/11 02:56:51;;;;;;;16.20;2.65;;;8.00;99.90;;;;;;6041655;23;20010;-87
2022/10/11 02:59:17;;;;;;;16.52;2.60;;;8.00;99.90;;;;;;6041556;23;20026;-87
2022/10/11 03:01:43;;;;;;;15.10;2.60;;;7.90;99.90;;;;;;6041864;23;20022;-87
2022/10/11 03:04:08;;;;;;;17.88;3.05;;;9.10;99.90;;;;;;6042633;23;20025;-87
2022/10/11 03:06:34;;;;;;;10.90;2.50;;;9.20;99.90;;;;;;6041610;23;20057;-87
2022/10/11 03:09:00;;;;;;;12.95;2.88;;;8.10;99.90;;;;;;6043036;23;20053;-87
2022/10/11 03:11:25;;;;;;;12.13;2.92;;;7.90;99.90;;;;;;6041228;23;20346;-87
2022/10/11 03:13:51;;;;;;;11.90;2.58;;;7.90;99.90;;;;;;6042448;23;20010;-88
2022/10/11 03:16:17;;;;;;;14.32;2.75;;;8.40;99.90;;;;;;6066171;23;20053;-87
2022/10/11 03:18:42;;;;;;;17.77;2.95;;;8.50;99.90;;;;;;6042414;23;20367;-87
2022/10/11 03:21:08;;;;;;;15.00;3.10;;;7.90;99.90;;;;;;6040169;23;20014;-87
2022/10/11 03:23:34;;;;;;;18.60;3.75;;;7.90;99.90;;;;;;6042042;23;20015;-87
2022/10/11 03:26:00;;;;;;;13.30;2.47;;;9.20;99.90;;;;;;6067648;23;20101;-87
2022/10/11 03:28:26;;;;;;;13.82;2.55;;;7.90;99.90;;;;;;6068474;23;20018;-87
2022/10/11 03:30:52;;;;;;;16.40;2.50;;;7.90;99.90;;;;;;6068085;23;20018;-87
2022/10/11 03:33:18;;;;;;;15.27;3.25;;;8.20;99.90;;;;;;6044052;23;20093;-87
2022/10/11 03:35:47;;;;;;;13.73;2.60;;;9.40;99.90;;;;;;6068739;23;20018;-87
2022/10/11 03:38:16;;;;;;;11.07;2.20;;;7.90;99.90;;;;;;6043907;23;20058;-87
2022/10/11 03:40:43;;;;;;;13.48;2.53;;;8.10;99.90;;;;;;6091610;23;20022;-88
2022/10/11 03:43:09;;;;;;;15.48;2.75;;;7.80;99.90;;;;;;6043117;23;20357;-87
2022/10/11 03:45:35;;;;;;;14.65;2.50;;;8.20;99.90;;;;;;6044078;23;20394;-87
2022/10/11 03:48:01;;;;;;;12.00;2.25;;;7.80;99.90;;;;;;6043973;23;20116;-87
2022/10/11 03:50:27;;;;;;;15.40;3.13;;;8.40;99.90;;;;;;6043010;23;20473;-87
2022/10/11 03:52:53;;;;;;;17.65;3.03;;;8.00;99.90;;;;;;6067259;23;20056;-87
2022/10/11 03:55:19;;;;;;;12.50;2.45;;;7.80;99.90;;;;;;6067403;23;20014;-87
2022/10/11 03:57:44;;;;;;;12.18;2.20;;;9.10;99.90;;;;;;6067685;23;20074;-87
2022/10/11 04:00:10;;;;;;;15.88;2.42;;;9.00;99.90;;;;;;6068094;23;20033;-87
2022/10/11 04:02:36;;;;;;;12.18;2.88;;;7.80;99.90;;;;;;6043924;23;20019;-87
2022/10/11 04:05:02;;;;;;;15.45;3.42;;;8.00;99.90;;;;;;6068282;23;20026;-87
2022/10/11 04:07:28;;;;;;;15.20;2.63;;;7.80;99.90;;;;;;6067913;23;20021;-87
2022/10/11 04:09:53;;;;;;;14.63;2.40;;;7.80;99.90;;;;;;6046942;23;20050;-87
2022/10/11 04:12:19;;;;;;;18.13;2.90;;;7.70;99.90;;;;;;6049072;23;20016;-87
2022/10/11 04:14:45;;;;;;;13.57;2.80;;;7.70;99.90;;;;;;6042686;23;20018;-87
2022/10/11 04:17:10;;;;;;;14.32;2.60;;;7.70;99.90;;;;;;6052222;23;20018;-87
2022/10/11 04:19:36;;;;;;;13.95;2.63;;;8.40;99.90;;;;;;6047345;23;20015;-87
2022/10/11 04:22:05;;;;;;;15.77;2.50;;;8.00;99.90;;;;;;6067775;23;20093;-87
2022/10/11 04:24:31;;;;;;;15.63;2.42;;;8.20;99.90;;;;;;6043190;23;20029;-87
2022/10/11 04:26:57;;;;;;;13.35;2.72;;;8.90;99.90;;;;;;6066895;23;20014;-87
2022/10/11 04:29:23;;;;;;;14.52;2.72;;;7.60;99.90;;;;;;6044150;23;20109;-87
2022/10/11 04:31:49;;;;;;;13.13;2.80;;;7.60;99.90;;;;;;6043899;23;20012;-87
2022/10/11 04:34:15;;;;;;;11.80;2.75;;;9.30;99.90;;;;;;6042963;23;20073;-87
2022/10/11 04:36:41;;;;;;;12.82;2.45;;;9.00;99.90;;;;;;6067375;23;20019;-87
2022/10/11 04:39:07;;;;;;;12.10;2.58;;;7.60;99.90;;;;;;6066708;23;20065;-88
2022/10/11 04:41:33;;;;;;;13.38;2.65;;;7.60;99.90;;;;;;6042774;23;20048;-88
2022/10/11 04:44:00;;;;;;;12.77;2.70;;;7.90;99.90;;;;;;6043357;23;20014;-87
2022/10/11 04:46:26;;;;;;;14.98;2.53;;;8.50;99.90;;;;;;6040584;23;20089;-87
2022/10/11 04:48:51;;;;;;;10.60;2.28;;;7.60;99.90;;;;;;6042718;23;20113;-87
2022/10/11 04:51:17;;;;;;;13.18;2.58;;;7.60;99.90;;;;;;6040866;23;20018;-87
2022/10/11 04:53:43;;;;;;;13.50;2.70;;;8.00;99.90;;;;;;6042696;23;20014;-87
2022/10/11 04:56:10;;;;;;;11.82;2.38;;;7.50;99.90;;;;;;6040162;23;20093;-87
2022/10/11 04:58:39;;;;;;;14.27;2.67;;;7.50;99.90;;;;;;6042625;23;20155;-87
2022/10/11 05:01:06;;;;;;;10.70;2.45;;;8.70;99.90;;;;;;6063266;23;20073;-86
2022/10/11 05:03:32;;;;;;;13.57;2.70;;;7.50;99.90;;;;;;6042787;23;20018;-87
2022/10/11 05:05:58;;;;;;;12.10;2.95;;;8.00;99.90;;;;;;6042727;23;20091;-87
2022/10/11 05:08:24;;;;;;;13.90;2.50;;;7.50;99.90;;;;;;6043417;23;20453;-87
2022/10/11 05:10:58;;;;;;;12.77;2.53;;;7.40;99.90;;;;;;6043261;23;20042;-87
2022/10/11 05:13:25;;;;;;;13.70;2.78;;;9.10;99.90;;;;;;6067646;23;20018;-86
2022/10/11 05:15:51;;;;;;;9.90;2.17;;;7.40;99.90;;;;;;6043500;23;20015;-87
2022/10/11 05:18:17;;;;;;;17.85;3.00;;;7.40;99.90;;;;;;6043132;23;20053;-87
2022/10/11 05:20:43;;;;;;;14.45;2.88;;;8.60;99.90;;;;;;6043394;23;20065;-87
2022/10/11 05:23:08;;;;;;;11.90;2.65;;;7.40;99.90;;;;;;6043378;23;20934;-87
2022/10/11 05:25:34;;;;;;;13.63;2.53;;;7.40;99.90;;;;;;6043305;23;20018;-87
2022/10/11 05:28:00;;;;;;;13.95;2.92;;;7.40;99.90;;;;;;6043093;23;20014;-87
2022/10/11 05:30:26;;;;;;;15.35;3.13;;;7.40;99.90;;;;;;6043058;23;20011;-87
2022/10/11 05:32:51;;;;;;;12.93;2.50;;;7.40;99.90;;;;;;6042534;23;20011;-87
2022/10/11 05:35:17;;;;;;;16.58;2.90;;;7.80;99.90;;;;;;6043199;23;20022;-87
2022/10/11 05:37:43;;;;;;;11.88;2.30;;;7.40;99.90;;;;;;6041341;23;20536;-87
2022/10/11 05:40:10;;;;;;;15.85;2.65;;;7.80;99.90;;;;;;6038482;23;20022;-87
2022/10/11 05:42:36;;;;;;;13.70;2.63;;;7.50;99.90;;;;;;6040152;23;20022;-87
2022/10/11 05:45:03;;;;;;;11.85;2.80;;;7.50;99.90;;;;;;6041014;23;20021;-87
2022/10/11 05:47:29;;;;;;;15.35;2.78;;;7.50;99.90;;;;;;6041483;23;20014;-87
2022/10/11 05:49:54;;;;;;;14.48;3.08;;;7.60;99.90;;;;;;6043133;23;20025;-87
2022/10/11 05:52:20;;;;;;;13.05;2.65;;;7.60;99.90;;;;;;6042348;23;20025;-87
2022/10/11 05:54:46;;;;;;;14.68;2.67;;;7.60;99.90;;;;;;6040985;23;20072;-87
2022/10/11 05:57:12;;;;;;;16.70;2.92;;;7.60;99.90;;;;;;6037223;23;20050;-88
2022/10/11 05:59:38;;;;;;;15.65;3.05;;;8.50;99.90;;;;;;6040902;23;20109;-89
2022/10/11 06:02:04;;;;;;;18.27;2.90;;;8.40;99.90;;;;;;6041681;23;20014;-90
2022/10/11 06:04:30;;;;;;;14.55;3.00;;;8.30;99.90;;;;;;6041371;23;20018;-89
2022/10/11 06:06:55;;;;;;;11.57;2.90;;;7.70;99.90;;;;;;6062888;23;20117;-91
2022/10/11 06:09:21;;;;;;;14.50;2.90;;;8.50;99.90;;;;;;6042300;23;20011;-88
2022/10/11 06:11:47;;;;;;;12.32;2.63;;;9.20;99.90;;;;;;6043610;23;20038;-88
2022/10/11 06:14:13;;;;;;;13.45;2.70;;;9.30;99.90;;;;;;6041938;23;20549;-87
2022/10/11 06:16:38;;;;;;;17.10;2.78;;;9.00;99.90;;;;;;6066298;23;20413;-85
2022/10/11 06:19:04;;;;;;;12.63;2.67;;;7.80;99.90;;;;;;6042404;23;20014;-86
2022/10/11 06:21:31;;;;;;;15.85;2.53;;;7.80;99.90;;;;;;6041982;23;20015;-87
2022/10/11 06:23:59;;;;;;;11.30;2.55;;;7.80;99.90;;;;;;6041359;23;20511;-87
2022/10/11 06:26:24;;;;;;;10.55;2.83;;;9.00;99.90;;;;;;6042133;23;20033;-85
2022/10/11 06:28:51;;;;;;;14.00;2.78;;;7.90;99.90;;;;;;6042303;23;20496;-86
2022/10/11 06:31:17;;;;;;;17.48;3.05;;;7.90;99.90;;;;;;6041073;23;20021;-85
2022/10/11 06:33:42;;;;;;;14.25;3.08;;;7.90;99.90;;;;;;6065578;23;20085;-86
2022/10/11 06:36:13;;;;;;;17.35;3.25;;;8.10;99.90;;;;;;6041485;23;20015;-85
2022/10/11 06:38:39;;;;;;;14.40;2.53;;;8.00;99.90;;;;;;6091498;23;20457;-85
2022/10/11 06:41:25;;;;;;;10.70;2.72;;;9.40;99.90;;;;;;6042575;23;20015;-90
2022/10/11 06:43:51;;;;;;;15.30;2.60;;;9.00;99.90;;;;;;6042684;23;20404;-89
2022/10/11 06:46:19;;;;;;;15.40;3.10;;;8.10;99.90;;;;;;6066859;23;20069;-88
2022/10/11 06:48:46;;;;;;;17.42;2.90;;;8.90;99.90;;;;;;6072187;23;20075;-88
2022/10/11 06:51:14;;;;;;;17.10;2.92;;;8.20;99.90;;;;;;6051230;23;20026;-87
2022/10/11 06:53:40;;;;;;;10.88;2.50;;;8.20;99.90;;;;;;6043385;23;20349;-87
2022/10/11 06:56:09;;;;;;;14.30;2.53;;;8.80;99.90;;;;;;6048049;23;20029;-87
2022/10/11 06:58:35;;;;;;;11.80;2.40;;;8.40;99.90;;;;;;6047727;23;20472;-87
2022/10/11 07:01:03;;;;;;;13.40;2.53;;;8.80;99.90;;;;;;6042637;23;20014;-88
2022/10/11 07:03:29;;;;;;;13.18;2.92;;;8.60;99.90;;;;;;6044346;23;20014;-88
2022/10/11 07:06:00;;;;;;;10.68;2.40;;;8.70;99.90;;;;;;6041242;23;20022;-89
2022/10/11 07:08:26;;;;;;;14.18;2.75;;;8.70;99.90;;;;;;6065474;23;20089;-87
2022/10/11 07:10:51;;;;;;;14.82;2.50;;;8.80;99.90;;;;;;6042488;23;20483;-87
2022/10/11 07:13:17;;;;;;;10.70;2.20;;;9.10;99.90;;;;;;6018909;23;20014;-87
2022/10/11 07:15:42;;;;;;;14.52;2.65;;;9.00;99.90;;;;;;6018761;23;20102;-88
2022/10/11 07:18:08;;;;;;;15.88;2.33;;;9.10;99.90;;;;;;6018963;23;20026;-87
2022/10/11 07:20:35;;;;;;;10.00;2.50;;;9.40;99.90;;;;;;6019976;23;20353;-87
2022/10/11 07:23:00;;;;;;;19.85;3.67;;;10.20;99.90;;;;;;6067205;23;20447;-89
2022/10/11 07:25:26;;;;;;;11.77;2.50;;;9.40;99.90;;;;;;6042712;23;20014;-86
2022/10/11 07:27:52;;;;;;;10.35;2.10;;;9.40;99.90;;;;;;6067064;23;20017;-87
2022/10/11 07:30:17;;;;;;;10.90;2.50;;;9.60;99.90;;;;;;6018439;23;20384;-87
2022/10/11 07:32:43;;;;;;;14.93;2.90;;;9.50;99.90;;;;;;6044313;23;20098;-88
2022/10/11 07:35:09;;;;;;;15.18;2.70;;;9.60;99.90;;;;;;6019704;23;20029;-87
2022/10/11 07:37:34;;;;;;;11.15;2.53;;;9.70;99.90;;;;;;6042001;23;20023;-88
2022/10/11 07:40:00;;;;;;;19.42;3.65;;;9.70;99.90;;;;;;6018930;23;20263;-88
2022/10/11 07:42:26;;;;;;;14.45;2.47;;;10.10;99.90;;;;;;6018428;23;20046;-87
2022/10/11 07:44:52;;;;;;;15.38;2.88;;;9.80;99.90;;;;;;6020717;23;20166;-87
2022/10/11 07:47:18;;;;;;;13.40;2.55;;;10.70;99.90;;;;;;6043559;23;20010;-88
2022/10/11 07:49:43;;;;;;;12.23;2.30;;;10.00;99.90;;;;;;6042947;23;20455;-88
2022/10/11 07:52:10;;;;;;;9.10;2.50;;;10.10;99.90;;;;;;6019301;23;20094;-87
2022/10/11 07:54:35;;;;;;;15.20;3.03;;;10.50;99.90;;;;;;6065320;23;20019;-86
2022/10/11 07:57:01;;;;;;;10.45;2.55;;;10.20;99.90;;;;;;6019735;23;20018;-86
2022/10/11 07:59:27;;;;;;;9.88;2.30;;;10.30;99.90;;;;;;6065865;23;20060;-87
2022/10/11 08:01:53;;;;;;;11.00;2.65;;;10.40;99.90;;;;;;5994860;23;20474;-88
2022/10/11 08:04:20;;;;;;;11.25;2.20;;;10.50;99.90;;;;;;6019680;23;20058;-87
2022/10/11 08:06:45;;;;;;;10.02;2.28;;;10.60;99.90;;;;;;6043741;23;20052;-88
2022/10/11 08:09:12;;;;;;;14.13;2.60;;;11.10;99.90;;;;;;6015745;23;20018;-88
2022/10/11 08:11:38;;;;;;;12.07;2.42;;;10.80;99.90;;;;;;6064656;23;20106;-88
2022/10/11 08:14:07;;;;;;;17.10;2.88;;;10.90;99.90;;;;;;6067944;23;20015;-88
2022/10/11 08:16:34;;;;;;;13.05;2.35;;;11.00;99.90;;;;;;6044735;23;20437;-87
2022/10/11 08:19:01;;;;;;;16.52;2.75;;;11.00;99.90;;;;;;6042527;23;20010;-86
2022/10/11 08:21:27;;;;;;;10.85;2.30;;;11.30;99.90;;;;;;6066946;23;20508;-87
2022/10/11 08:23:53;;;;;;;15.60;3.00;;;11.20;99.90;;;;;;6042724;23;20050;-86
2022/10/11 08:26:19;;;;;;;14.05;2.85;;;11.20;99.90;;;;;;6020726;23;20021;-86
2022/10/11 08:28:45;;;;;;;13.85;2.55;;;11.30;99.90;;;;;;6067671;23;20019;-88
2022/10/11 08:31:12;;;;;;;12.98;2.80;;;12.10;99.90;;;;;;6042031;23;20503;-86
2022/10/11 08:33:38;;;;;;;10.48;2.50;;;11.50;99.90;;;;;;6067873;23;20015;-86
2022/10/11 08:36:04;;;;;;;15.10;3.30;;;11.60;99.90;;;;;;6067243;23;20026;-90
2022/10/11 08:38:30;;;;;;;12.38;3.28;;;11.70;99.90;;;;;;6067743;23;20495;-88
2022/10/11 08:40:58;;;;;;;14.60;2.70;;;11.80;99.90;;;;;;6042708;23;20026;-86
2022/10/11 08:43:37;;;;;;;13.88;2.63;;;11.80;99.90;;;;;;6042887;23;20093;-90
2022/10/11 08:46:05;;;;;;;18.58;3.28;;;11.90;99.90;;;;;;6067339;23;20021;-90
2022/10/11 08:48:43;;;;;;;12.25;2.50;;;12.00;99.90;;;;;;6067483;23;20050;-87
2022/10/11 08:51:30;;;;;;;11.93;2.40;;;12.10;99.90;;;;;;6043792;23;20014;-88
2022/10/11 08:54:03;;;;;;;11.63;2.67;;;12.20;99.90;;;;;;6042625;23;20085;-89
2022/10/11 08:56:30;;;;;;;;;;;12.30;99.90;;;;;;6044280;23;20011;-87
2022/10/11 08:59:12;;;;;;;10.80;2.40;;;12.30;99.90;;;;;;6044470;23;19913;-88
2022/10/11 09:01:45;;;;;;;12.00;2.85;;;12.40;99.90;;;;;;6041986;23;20072;-86
2022/10/11 09:04:15;;;;;;;15.52;2.65;;;12.50;99.90;;;;;;6042788;23;20471;-88
2022/10/11 09:07:07;;;;;;;13.63;2.95;;;12.60;99.90;;;;;;6044024;23;20014;-87
2022/10/11 09:09:57;;;;;;;15.60;2.70;;;12.70;99.90;;;;;;6018499;23;20581;-87
2022/10/11 09:12:52;;;;;;;12.70;2.63;;;12.80;99.90;;;;;;6043000;23;20015;-88
2022/10/11 09:15:39;;;;;;;13.57;2.90;;;12.90;99.90;;;;;;6067137;23;20018;-87
2022/10/11 09:18:41;;;;;;;13.77;3.20;;;13.00;99.90;;;;;;6042279;23;20474;-86
2022/10/11 09:21:30;;;;;;;14.30;2.90;;;13.00;99.90;;;;;;5919927;23;20076;-86
2022/10/11 09:24:31;;;;;;;12.73;2.50;;;13.10;99.90;;;;;;6067824;23;20018;-87
2022/10/11 09:27:04;;;;;;;12.52;2.53;;;13.20;99.90;;;;;;5966044;23;20010;-88
2022/10/11 09:29:30;;;;;;;11.65;2.50;;;13.30;99.90;;;;;;6044385;23;20021;-87
2022/10/11 09:31:57;;;;;;;13.65;3.08;;;13.30;99.90;;;;;;6044845;23;20018;-87
2022/10/11 09:34:31;;;;;;;15.05;2.72;;;13.40;99.90;;;;;;6044304;23;20022;-89
2022/10/11 09:37:19;;;;;;;14.13;2.60;;;13.50;99.90;;;;;;6021393;23;20106;-88
2022/10/11 09:39:53;;;;;;;15.30;3.08;;;13.50;99.90;;;;;;6067446;23;20029;-88
2022/10/11 09:42:19;;;;;;;13.07;2.55;;;13.60;99.90;;;;;;6076490;23;20053;-88
2022/10/11 09:44:50;;;;;;;15.20;3.00;;;13.60;99.90;;;;;;6027132;23;20093;-88
2022/10/11 09:47:25;;;;;;;13.77;2.90;;;13.70;99.90;;;;;;6068877;23;20018;-87
2022/10/11 09:50:02;;;;;;;14.80;2.70;;;13.70;99.90;;;;;;6054733;23;20058;-88
2022/10/11 09:52:28;;;;;;;12.50;2.80;;;13.80;99.90;;;;;;6070041;23;20022;-87
2022/10/11 09:55:00;;;;;;;13.23;2.25;;;13.90;99.90;;;;;;6042852;23;20018;-87
2022/10/11 09:57:41;;;;;;;13.02;2.33;;;14.00;99.90;;;;;;6042889;23;20018;-88
2022/10/11 10:00:23;;;;;;;10.70;2.30;;;14.00;99.90;;;;;;6043557;23;20094;-86
2022/10/11 10:02:52;;;;;;;11.00;2.50;;;14.10;99.90;;;;;;6043749;23;20020;-88
2022/10/11 10:05:32;;;;;;;12.82;2.50;;;14.10;99.90;;;;;;6042441;23;20435;-89
2022/10/11 10:08:00;;;;;;;13.57;2.17;;;14.20;99.90;;;;;;6043392;23;20006;-88
2022/10/11 10:10:34;;;;;;;16.80;3.00;;;14.20;99.90;;;;;;6043867;23;20531;-88
2022/10/11 10:13:03;;;;;;;11.90;2.53;;;14.30;99.90;;;;;;6042806;23;20057;-86
2022/10/11 10:15:35;;;;;;;12.32;2.20;;;14.30;99.90;;;;;;6066565;23;20014;-87
2022/10/11 10:18:02;;;;;;;13.55;2.50;;;14.40;99.90;;;;;;6042961;23;20030;-88
2022/10/11 10:20:33;;;;;;;12.52;2.95;;;14.40;99.90;;;;;;6042251;23;20121;-88
2022/10/11 10:23:24;;;;;;;12.23;2.20;;;14.60;99.90;;;;;;6042261;23;20071;-88
2022/10/11 10:25:51;;;;;;;12.80;2.78;;;14.40;99.90;;;;;;6025163;23;20402;-88
2022/10/11 10:28:25;;;;;;;12.20;2.50;;;14.50;99.90;;;;;;6018360;23;20057;-88
2022/10/11 10:30:54;;;;;;;13.68;2.53;;;14.50;99.90;;;;;;6066910;23;20015;-87
2022/10/11 10:33:25;;;;;;;13.20;2.80;;;14.60;99.90;;;;;;6041462;23;20025;-88
2022/10/11 10:35:59;;;;;;;13.70;2.60;;;14.70;99.90;;;;;;6042567;23;20025;-87
2022/10/11 10:38:25;;;;;;;10.68;2.72;;;14.80;99.90;;;;;;6066775;23;20085;-88
2022/10/11 10:40:53;;;;;;;11.88;2.78;;;14.90;99.90;;;;;;6042593;23;20101;-87
2022/10/11 10:43:23;;;;;;;12.50;2.58;;;14.90;99.90;;;;;;6043639;23;20085;-88
2022/10/11 10:45:54;;;;;;;14.57;2.65;;;15.00;99.90;;;;;;6043530;23;20014;-88
2022/10/11 10:48:38;;;;;;;12.20;2.60;;;15.00;99.90;;;;;;6043171;23;20085;-89
2022/10/11 10:51:16;;;;;;;11.68;2.17;;;15.10;99.90;;;;;;6042350;23;20029;-90
2022/10/11 10:53:55;;;;;;;12.15;2.70;;;15.00;99.90;;;;;;6042671;23;20022;-87
2022/10/11 10:56:29;;;;;;;13.13;2.22;;;14.80;99.90;;;;;;6043042;23;20011;-89
2022/10/11 10:59:02;;;;;;;12.50;2.50;;;14.70;99.90;;;;;;6041527;23;20014;-89
2022/10/11 11:01:36;;;;;;;16.05;2.40;;;14.60;99.90;;;;;;6042685;23;20357;-92
2022/10/11 11:04:20;;;;;;;11.20;2.33;;;14.70;99.90;;;;;;6041800;23;20010;-90
2022/10/11 11:07:08;;;;;;;11.77;2.55;;;14.90;99.90;;;;;;6043151;23;20615;-90
2022/10/11 11:09:36;;;;;;;12.77;2.47;;;15.10;99.90;;;;;;6067230;23;20400;-88
2022/10/11 11:12:18;;;;;;;13.40;2.40;;;15.30;99.90;;;;;;6040125;23;20045;-89
2022/10/11 11:15:08;;;;;;;12.98;2.65;;;15.30;99.90;;;;;;6042950;23;20074;-90
2022/10/11 11:18:02;;;;;;;13.60;2.72;;;15.40;99.90;;;;;;6041893;23;20141;-92
2022/10/11 11:21:03;;;;;;;11.40;2.33;;;15.50;99.90;;;;;;6024339;23;20461;-88
2022/10/11 11:23:52;;;;;;;11.25;2.72;;;15.70;99.90;;;;;;6043450;23;20018;-88
2022/10/11 11:26:35;;;;;;;12.10;2.42;;;15.70;99.90;;;;;;6049786;23;20014;-88
2022/10/11 11:29:34;;;;;;;10.43;2.40;;;15.50;99.90;;;;;;6039563;23;20045;-87
2022/10/11 11:32:26;;;;;;;11.35;2.40;;;15.40;99.90;;;;;;6064901;23;20021;-87
2022/10/11 11:35:01;;;;;;;11.75;2.35;;;15.20;99.90;;;;;;6065175;23;20014;-88
2022/10/11 11:37:37;;;;;;;9.70;2.30;;;15.00;99.90;;;;;;6041602;23;20050;-90
2022/10/11 11:40:08;;;;;;;12.00;2.60;;;14.80;99.90;;;;;;6043056;23;20063;-90
2022/10/11 11:42:43;;;;;;;13.77;2.35;;;14.60;99.90;;;;;;6041321;23;20030;-90
2022/10/11 11:45:23;;;;;;;10.48;1.80;;;14.50;99.90;;;;;;6041566;23;20326;-88
2022/10/11 11:48:00;;;;;;;9.70;2.00;;;14.40;99.90;;;;;;6044559;23;20042;-87
2022/10/11 11:50:33;;;;;;;14.48;2.60;;;14.20;99.90;;;;;;6063608;23;20042;-86
2022/10/11 11:53:13;;;;;;;11.77;2.50;;;14.10;99.90;;;;;;6042824;23;20511;-86
2022/10/11 11:56:00;;;;;;;11.20;2.20;;;14.00;99.90;;;;;;6042360;23;20054;-90
2022/10/11 11:58:28;;;;;;;11.15;2.35;;;14.00;99.90;;;;;;6043385;23;20022;-88
2022/10/11 12:01:00;;;;;;;12.00;2.40;;;14.00;99.90;;;;;;6043079;23;20022;-87
2022/10/11 12:03:49;;;;;;;13.43;2.13;;;14.00;99.90;;;;;;6041492;23;20014;-89
2022/10/11 12:06:20;;;;;;;10.85;2.15;;;14.00;99.90;;;;;;6041732;23;20354;-89
2022/10/11 12:08:54;;;;;;;9.65;2.17;;;14.10;99.90;;;;;;6067136;23;20701;-87
2022/10/11 12:11:26;;;;;;;10.82;2.28;;;14.20;99.90;;;;;;6044317;23;20011;-88
2022/10/11 12:13:53;;;;;;;13.85;2.80;;;14.30;99.90;;;;;;6042852;23;20014;-89
2022/10/11 12:16:20;;;;;;;11.95;2.45;;;14.30;99.90;;;;;;6042413;23;20322;-88
2022/10/11 12:18:51;;;;;;;10.10;2.28;;;14.40;99.90;;;;;;6020429;23;20073;-91
2022/10/11 12:21:31;;;;;;;10.77;2.22;;;14.40;99.90;;;;;;6044418;23;20094;-88
2022/10/11 12:24:18;;;;;;;13.15;2.47;;;14.40;99.90;;;;;;6068049;23;20987;-86
2022/10/11 12:26:46;;;;;;;13.23;2.80;;;14.50;99.90;;;;;;6018302;23;20014;-87
2022/10/11 12:29:23;;;;;;;12.45;2.22;;;14.50;99.90;;;;;;6068382;23;20017;-88
2022/10/11 12:31:58;;;;;;;13.77;2.20;;;14.50;99.90;;;;;;6067173;23;20018;-89
2022/10/11 12:34:42;;;;;;;11.30;2.10;;;14.50;99.90;;;;;;6045792;23;20018;-88
2022/10/11 12:37:16;;;;;;;;;;;14.50;99.90;;;;;;6068351;23;20026;-89
2022/10/11 12:39:56;;;;;;;13.13;2.17;;;14.50;99.90;;;;;;6070109;23;20049;-89
2022/10/11 12:42:28;;;;;;;11.68;2.30;;;14.50;99.90;;;;;;6044511;23;20086;-89
2022/10/11 12:45:12;;;;;;;11.82;2.55;;;14.60;99.90;;;;;;6077890;23;20022;-87
2022/10/11 12:47:38;;;;;;;13.32;2.55;;;;;;;;;;6054774;23;20014;-88
2022/10/11 12:50:17;;;;;;;10.40;2.05;;;14.60;99.90;;;;;;6068986;23;20015;-88
2022/10/11 12:53:17;;;;;;;10.80;2.03;;;14.60;99.90;;;;;;6057630;23;20017;-88
2022/10/11 12:55:46;;;;;;;15.35;2.75;;;14.60;99.90;;;;;;6047770;23;20018;-90
2022/10/11 12:58:29;;;;;;;13.18;2.25;;;14.50;99.90;;;;;;6042288;23;20020;-88
2022/10/11 13:00:55;;;;;;;9.88;1.80;;;14.60;99.90;;;;;;6042163;23;20023;-89
2022/10/11 13:03:29;;;;;;;9.73;2.40;;;14.70;99.90;;;;;;6043478;23;20113;-88